Time;durP1;ratioP1;P1;durP2;ratioP2;P2;SDS_P1;SDS_P2;PMS_P1;PMS_P2;Temp;Humidity;BMP_temperature;BMP_pressure;BME280_temperature;BME280_humidity;BME280_pressure;Samples;Min_cycle;Max_cycle;Signal;HPM_P1;HPM_P2
2022/02/13 00:00:01;;;;;;;0.80;0.80;;;-3.30;1.40;;;-2.94;100.00;96028.76;648309;216;31580;-76
2022/02/13 00:02:45;;;;;;;0.75;0.65;;;-3.40;1.40;;;-3.05;100.00;96027.77;650001;216;31815;-77
2022/02/13 00:05:28;;;;;;;9.90;1.27;;;-3.50;1.40;;;-3.01;100.00;96026.87;647614;212;31505;-76
2022/02/13 00:08:09;;;;;;;1.50;1.00;;;-3.50;1.40;;;-3.08;100.00;96024.34;648242;212;31594;-75
2022/02/13 00:10:51;;;;;;;1.50;1.40;;;-3.60;1.40;;;-3.12;100.00;96018.94;654224;216;32063;-76
2022/02/13 00:13:32;;;;;;;0.65;0.62;;;-3.50;1.40;;;-3.16;100.00;96018.16;650737;212;31951;-76
2022/02/13 00:16:15;;;;;;;0.60;0.60;;;-3.40;1.40;;;-2.86;100.00;96009.95;645010;212;31614;-77
2022/02/13 00:18:57;;;;;;;0.80;0.50;;;-3.00;1.40;;;-2.81;100.00;96007.39;648040;212;31518;-76
2022/02/13 00:21:38;;;;;;;0.70;0.70;;;-3.00;1.40;;;-2.61;100.00;96006.22;648927;212;31490;-77
2022/02/13 00:24:20;;;;;;;1.40;0.80;;;-2.70;1.40;;;-2.50;100.00;96009.67;648769;216;31555;-76
2022/02/13 00:27:02;;;;;;;1.00;0.90;;;-2.70;1.40;;;-2.69;100.00;96003.30;645363;216;31494;-76
2022/02/13 00:29:44;;;;;;;1.45;0.77;;;-3.00;1.40;;;-2.82;100.00;96004.11;651259;216;31622;-77
2022/02/13 00:32:27;;;;;;;0.60;0.60;;;-3.20;1.40;;;-2.84;100.00;95993.97;649648;216;31512;-77
2022/02/13 00:35:52;;;;;;;0.90;0.60;;;-3.10;1.40;;;-2.90;100.00;95997.78;648802;216;31654;-76
2022/02/13 00:38:33;;;;;;;0.90;0.90;;;-3.30;1.40;;;-2.93;100.00;95986.94;617981;222;31811;-77
2022/02/13 00:41:18;;;;;;;1.30;0.85;;;-3.10;1.40;;;-3.00;100.00;95988.17;647295;216;32683;-77
2022/02/13 00:44:00;;;;;;;1.08;0.98;;;-3.30;1.40;;;-2.74;100.00;95986.48;649773;212;31498;-77
2022/02/13 00:46:41;;;;;;;0.52;0.50;;;-2.90;1.40;;;-3.00;100.00;95987.59;648039;216;31558;-76
2022/02/13 00:49:23;;;;;;;1.10;0.80;;;-3.30;1.40;;;-2.92;100.00;95989.35;650666;216;31542;-76
2022/02/13 00:52:05;;;;;;;1.60;0.80;;;-3.30;1.40;;;-2.97;100.00;95981.54;645700;216;31536;-76
2022/02/13 00:54:51;;;;;;;1.10;0.60;;;-3.30;1.40;;;-2.67;100.00;95986.95;621888;222;31923;-76
2022/02/13 00:57:32;;;;;;;0.40;0.40;;;-2.80;1.40;;;-2.17;100.00;95984.48;649077;212;31536;-76
2022/02/13 01:00:16;;;;;;;0.60;0.40;;;-2.10;1.40;;;-1.99;100.00;95985.95;651700;216;31566;-77
2022/02/13 01:02:57;;;;;;;0.40;0.30;;;-1.90;1.40;;;-1.93;100.00;95991.45;646630;216;32079;-76
2022/02/13 01:05:39;;;;;;;0.80;0.50;;;-2.00;1.40;;;-1.91;100.00;95983.84;643874;216;31698;-76
2022/02/13 01:08:21;;;;;;;2.87;1.08;;;-2.00;1.40;;;-1.76;100.00;95984.63;648442;216;31467;-76
2022/02/13 01:11:06;;;;;;;0.70;0.40;;;-1.80;1.40;;;-1.80;100.00;95986.38;647738;216;31552;-77
2022/02/13 01:13:48;;;;;;;1.20;1.00;;;-1.90;1.40;;;-1.82;100.00;95982.31;647610;216;31760;-76
2022/02/13 01:16:29;;;;;;;0.80;0.80;;;-2.00;1.40;;;-1.74;100.00;95981.89;647692;212;42139;-76
2022/02/13 01:19:11;;;;;;;1.08;0.55;;;-1.80;1.40;;;-1.65;100.00;95980.31;648381;212;31492;-75
2022/02/13 01:21:53;;;;;;;0.90;0.73;;;-1.70;1.40;;;-1.61;100.00;95976.23;650553;216;31545;-76
2022/02/13 01:24:35;;;;;;;2.30;0.77;;;-1.70;1.40;;;-1.72;100.00;95979.68;646588;212;31537;-77
2022/02/13 01:27:17;;;;;;;2.10;0.90;;;-2.00;1.40;;;-1.74;100.00;95975.52;648702;213;42753;-76
2022/02/13 01:29:59;;;;;;;0.90;0.70;;;-2.00;1.40;;;-1.75;100.00;95971.55;647642;216;31512;-77
2022/02/13 01:32:40;;;;;;;0.70;0.70;;;-2.00;1.40;;;-1.67;100.00;95977.59;649090;212;31516;-76
2022/02/13 01:35:51;;;;;;;0.80;0.80;;;-1.80;1.40;;;-1.58;100.00;95977.52;647400;212;31914;-76
2022/02/13 01:38:32;;;;;;;1.40;1.30;;;-1.70;1.40;;;-1.53;100.00;95980.72;646730;216;31497;-76
2022/02/13 01:41:14;;;;;;;0.90;0.90;;;-1.60;1.40;;;-1.57;100.00;95976.39;644893;216;31761;-76
2022/02/13 01:43:57;;;;;;;0.50;0.50;;;-1.80;1.40;;;-1.69;100.00;95971.07;619885;222;32361;-76
2022/02/13 01:46:39;;;;;;;0.80;0.60;;;-1.90;1.40;;;-1.61;100.00;95973.62;625285;222;31859;-76
2022/02/13 01:49:20;;;;;;;0.50;0.50;;;-1.90;1.40;;;-1.52;100.00;95970.59;619954;226;31817;-76
2022/02/13 01:52:05;;;;;;;0.50;0.40;;;-1.70;1.40;;;-1.62;100.00;95972.77;649983;216;31528;-76
2022/02/13 01:57:29;;;;;;;0.50;0.50;;;-2.10;1.40;;;-1.86;100.00;95973.90;648734;216;31545;-77
2022/02/13 02:00:11;;;;;;;0.50;0.50;;;-2.30;1.40;;;-2.09;100.00;95975.41;650172;216;31559;-76
2022/02/13 02:02:53;;;;;;;0.43;0.43;;;-2.60;1.40;;;-2.22;100.00;95975.45;648392;212;31472;-77
2022/02/13 02:05:35;;;;;;;0.50;0.50;;;-2.70;1.40;;;-1.97;100.00;95966.74;648155;216;31502;-76
2022/02/13 02:08:17;;;;;;;0.70;0.70;;;-2.10;1.40;;;-2.05;100.00;95965.91;648953;212;31586;-76
2022/02/13 02:10:58;;;;;;;0.80;0.80;;;-2.10;1.40;;;-1.81;100.00;95959.86;649468;216;42703;-76
2022/02/13 02:13:40;;;;;;;0.90;0.60;;;-1.90;1.40;;;-1.88;100.00;95964.00;645935;212;31654;-76
2022/02/13 02:16:24;;;;;;;0.50;0.50;;;-2.00;1.40;;;-1.60;100.00;95961.43;646414;212;31569;-77
2022/02/13 02:19:12;;;;;;;0.60;0.50;;;-1.60;1.40;;;-1.30;100.00;95952.27;648352;212;31514;-75
2022/02/13 02:21:53;;;;;;;0.90;0.70;;;-1.20;1.40;;;-1.18;100.00;95950.39;647274;212;31566;-76
2022/02/13 02:24:35;;;;;;;1.00;0.90;;;-1.20;1.40;;;-1.17;100.00;95950.50;649255;216;31550;-76
2022/02/13 02:27:17;;;;;;;0.60;0.60;;;-1.20;1.40;;;-1.32;100.00;95955.03;623590;226;31999;-75
2022/02/13 02:32:33;;;;;;;0.80;0.50;;;-2.10;1.40;;;-1.59;100.00;95960.63;644581;212;31530;-75
2022/02/13 02:35:51;;;;;;;0.40;0.30;;;-1.60;1.40;;;-1.23;100.00;95948.66;650684;216;31586;-77
2022/02/13 02:38:33;;;;;;;0.40;0.30;;;-1.10;1.40;;;-1.13;98.42;95942.89;649073;216;31781;-76
2022/02/13 02:41:15;;;;;;;0.50;0.50;;;-1.20;1.40;;;-1.08;95.81;95944.74;649861;212;31455;-77
2022/02/13 02:43:56;;;;;;;0.50;0.40;;;-1.20;1.40;;;-0.94;94.10;95939.80;649687;216;31804;-77
2022/02/13 02:46:41;;;;;;;0.40;0.30;;;-1.10;1.40;;;-1.07;95.11;95947.86;650882;212;31527;-75
2022/02/13 02:49:23;;;;;;;0.60;0.50;;;-1.30;1.40;;;-1.08;95.10;95945.04;622329;222;31812;-76
2022/02/13 02:52:05;;;;;;;0.50;0.40;;;-1.30;1.40;;;-1.11;94.83;95946.72;646905;216;31565;-76
2022/02/13 02:54:50;;;;;;;1.80;0.90;;;-1.30;1.40;;;-1.10;94.97;95944.73;616352;222;32296;-76
2022/02/13 02:57:32;;;;;;;0.50;0.50;;;-1.30;1.40;;;-1.11;95.14;95944.15;645357;216;31573;-77
2022/02/13 03:00:14;;;;;;;1.00;0.80;;;-1.30;1.40;;;-1.08;94.45;95939.73;622697;226;32339;-76
2022/02/13 03:02:55;;;;;;;1.90;0.80;;;-1.30;1.40;;;-1.19;95.88;95938.78;652221;216;31553;-76
2022/02/13 03:05:37;;;;;;;0.70;0.60;;;-1.50;1.40;;;-1.20;97.09;95941.82;647689;212;42291;-77
2022/02/13 03:08:19;;;;;;;0.40;0.30;;;-1.40;1.40;;;-1.09;95.07;95938.05;650085;216;31506;-76
2022/02/13 03:11:01;;;;;;;0.70;0.40;;;-1.30;1.40;;;-1.05;94.87;95938.75;652842;216;31491;-76
2022/02/13 03:13:42;;;;;;;0.60;0.60;;;-1.30;1.40;;;-0.96;92.87;95937.84;644701;212;31541;-76
2022/02/13 03:16:24;;;;;;;1.58;0.70;;;-1.10;1.40;;;-0.93;92.26;95945.92;650206;216;31584;-77
2022/02/13 03:19:06;;;;;;;0.50;0.40;;;-1.10;1.40;;;-0.85;90.24;95940.65;648495;212;31500;-76
2022/02/13 03:21:47;;;;;;;0.40;0.32;;;-1.00;1.40;;;-0.82;89.36;95945.55;649523;213;31593;-75
2022/02/13 03:24:29;;;;;;;0.47;0.47;;;-1.00;1.40;;;-0.86;89.49;95946.81;647527;212;31525;-75
2022/02/13 03:27:11;;;;;;;0.40;0.40;;;-1.10;1.40;;;-0.96;91.42;95954.03;648013;216;31649;-77
2022/02/13 03:29:52;;;;;;;0.50;0.30;;;-1.40;1.40;;;-1.08;92.28;95951.00;650139;216;31592;-77
2022/02/13 03:32:34;;;;;;;1.80;0.60;;;-1.60;1.40;;;-1.49;99.34;95955.84;647899;216;31494;-76
2022/02/13 03:35:51;;;;;;;0.60;0.50;;;-2.20;1.40;;;-1.76;100.00;95946.80;652389;216;31636;-76
2022/02/13 03:38:35;;;;;;;0.50;0.50;;;-2.50;1.40;;;-2.02;100.00;95946.32;624461;222;31851;-77
2022/02/13 03:41:17;;;;;;;1.00;0.70;;;-2.60;1.40;;;-1.98;100.00;95947.41;650338;212;31504;-76
2022/02/13 03:44:02;;;;;;;0.90;0.80;;;-2.50;1.40;;;-1.70;100.00;95943.72;648600;216;31521;-76
2022/02/13 03:46:44;;;;;;;0.40;0.37;;;-1.80;1.40;;;-1.40;99.61;95946.21;647923;212;32309;-76
2022/02/13 03:49:25;;;;;;;0.40;0.30;;;-1.50;1.40;;;-1.41;98.80;95940.89;647738;213;31516;-76
2022/02/13 03:52:08;;;;;;;0.70;0.70;;;-1.50;1.40;;;-1.37;97.67;95942.45;646168;216;42143;-76
2022/02/13 03:54:50;;;;;;;0.40;0.30;;;-1.70;1.40;;;-1.35;96.19;95944.09;653404;212;32258;-76
2022/02/13 03:57:35;;;;;;;0.60;0.40;;;-1.70;1.40;;;-1.33;94.96;95948.83;647891;216;31498;-77
2022/02/13 04:00:18;;;;;;;0.40;0.40;;;-1.60;1.40;;;-1.38;95.14;95941.30;645970;212;31512;-76
2022/02/13 04:02:58;;;;;;;0.70;0.65;;;-1.70;1.40;;;-1.48;96.90;95942.66;650290;216;31539;-76
2022/02/13 04:05:40;;;;;;;0.50;0.50;;;-1.80;1.40;;;-1.74;100.00;95943.34;646226;216;31713;-76
2022/02/13 04:08:22;;;;;;;0.60;0.60;;;-2.10;1.40;;;-1.87;100.00;95940.72;618099;226;31828;-76
2022/02/13 04:11:04;;;;;;;0.50;0.50;;;-2.30;1.40;;;-1.97;100.00;95939.46;648469;216;31507;-76
2022/02/13 04:13:46;;;;;;;0.50;0.47;;;-2.40;1.40;;;-1.79;100.00;95944.47;623065;226;32569;-77
2022/02/13 04:16:28;;;;;;;0.50;0.50;;;-1.90;1.40;;;-1.76;100.00;95938.42;618559;225;31972;-76
2022/02/13 04:19:12;;;;;;;0.80;0.60;;;-1.90;1.40;;;-1.70;99.69;95940.56;644203;216;32044;-76
2022/02/13 04:21:54;;;;;;;1.95;0.68;;;-1.90;1.40;;;-1.54;97.14;95934.00;647646;216;31502;-76
2022/02/13 04:27:11;;;;;;;2.25;0.37;;;-1.60;1.40;;;-1.45;93.15;95935.26;646196;212;31549;-76
2022/02/13 04:29:53;;;;;;;0.60;0.50;;;-1.60;1.40;;;-1.45;92.90;95930.50;648030;216;31515;-76
2022/02/13 04:32:36;;;;;;;0.40;0.40;;;-1.60;1.40;;;-1.41;92.49;95926.69;620824;226;33736;-76
2022/02/13 04:35:51;;;;;;;0.40;0.40;;;-1.60;1.40;;;-1.39;91.98;95922.91;650971;216;31920;-76
2022/02/13 04:38:36;;;;;;;0.40;0.40;;;-1.60;1.40;;;-1.36;92.61;95918.00;645646;216;31520;-76
2022/02/13 04:41:17;;;;;;;0.50;0.50;;;-1.60;1.40;;;-1.26;90.83;95920.11;649138;216;31554;-76
2022/02/13 04:43:59;;;;;;;0.50;0.40;;;-1.40;1.40;;;-1.21;90.23;95918.82;647264;212;31475;-77
2022/02/13 04:46:41;;;;;;;0.80;0.60;;;-1.40;1.40;;;-1.17;89.84;95916.51;650065;216;31528;-76
2022/02/13 04:49:22;;;;;;;1.20;0.50;;;-1.30;1.40;;;-1.16;89.77;95915.29;622159;222;31887;-76
2022/02/13 04:52:05;;;;;;;0.40;0.30;;;-1.40;1.40;;;-1.23;89.96;95917.38;647399;212;32172;-76
2022/02/13 04:54:46;;;;;;;0.62;0.30;;;-1.50;1.40;;;-1.24;90.15;95912.02;650427;216;31707;-77
2022/02/13 04:57:28;;;;;;;0.40;0.30;;;-1.40;1.40;;;-1.24;91.03;95913.02;644934;212;32087;-76
2022/02/13 05:00:10;;;;;;;0.50;0.50;;;-1.50;1.40;;;-1.22;90.78;95904.31;647874;216;31691;-76
2022/02/13 05:05:26;;;;;;;0.60;0.40;;;-1.40;1.40;;;-0.92;88.20;95903.21;647464;212;31643;-77
2022/02/13 05:08:08;;;;;;;0.40;0.30;;;-1.00;1.40;;;-0.82;87.47;95897.95;649627;216;31510;-76
2022/02/13 05:10:50;;;;;;;0.40;0.40;;;-1.00;1.40;;;-0.83;87.16;95902.62;649995;216;31532;-76
2022/02/13 05:13:34;;;;;;;0.40;0.35;;;-1.00;1.40;;;-0.75;86.03;95894.02;620963;226;31911;-76
2022/02/13 05:16:15;;;;;;;0.40;0.40;;;-0.90;1.40;;;-0.76;86.18;95890.52;647337;212;31500;-77
2022/02/13 05:19:00;;;;;;;1.20;0.60;;;-1.00;1.40;;;-0.64;84.58;95884.22;645586;212;31655;-76
2022/02/13 05:21:42;;;;;;;0.40;0.40;;;-0.80;1.40;;;-0.61;84.09;95884.17;649376;212;31630;-77
2022/02/13 05:24:23;;;;;;;0.60;0.40;;;-0.80;1.40;;;-0.59;83.80;95887.61;651392;212;31506;-75
2022/02/13 05:27:06;;;;;;;0.60;0.50;;;-0.80;1.40;;;-0.60;83.75;95884.39;616680;224;32142;-75
2022/02/13 05:29:48;;;;;;;0.40;0.32;;;-0.80;1.40;;;-0.71;84.31;95884.79;620703;225;31829;-76
2022/02/13 05:32:33;;;;;;;1.00;0.60;;;-1.00;1.40;;;-0.66;84.46;95887.05;646114;216;31520;-76
2022/02/13 05:35:52;;;;;;;0.40;0.30;;;-0.90;1.40;;;-0.66;83.27;95891.59;649720;216;31483;-76
2022/02/13 05:38:33;;;;;;;0.50;0.40;;;-0.90;1.40;;;-0.66;83.62;95890.29;619939;226;31851;-76
2022/02/13 05:41:18;;;;;;;0.50;0.40;;;-0.90;1.40;;;-1.02;88.70;95891.53;651502;216;31485;-76
2022/02/13 05:44:00;;;;;;;0.45;0.45;;;-1.60;1.40;;;-1.18;90.57;95887.99;651467;212;31552;-76
2022/02/13 05:46:42;;;;;;;0.47;0.47;;;-1.90;1.40;;;-1.42;93.60;95893.63;646853;212;31570;-77
2022/02/13 05:49:23;;;;;;;0.55;0.43;;;-2.20;1.40;;;-1.53;94.74;95893.58;648389;216;31592;-77
2022/02/13 05:52:05;;;;;;;0.40;0.32;;;-2.10;1.40;;;-1.23;91.17;95892.64;648740;216;31515;-76
2022/02/13 05:54:47;;;;;;;0.60;0.30;;;-1.30;1.40;;;-1.45;93.46;95890.98;646527;216;31780;-77
2022/02/13 05:57:29;;;;;;;0.60;0.60;;;-1.80;1.40;;;-1.46;93.98;95886.84;646716;212;31524;-76
2022/02/13 06:02:47;;;;;;;0.50;0.40;;;-1.70;1.40;;;-1.48;95.39;95896.14;622172;222;31809;-77
2022/02/13 06:05:28;;;;;;;0.40;0.30;;;-1.70;1.40;;;-1.36;93.00;95893.97;617965;226;31815;-77
2022/02/13 06:08:10;;;;;;;0.50;0.40;;;-1.50;1.40;;;-1.21;90.87;95898.02;647471;216;31516;-76
2022/02/13 06:10:58;;;;;;;1.00;0.70;;;-1.30;1.40;;;-0.95;86.43;95894.21;649182;212;31508;-74
2022/02/13 06:13:46;;;;;;;0.47;0.30;;;-1.00;1.40;;;-0.86;83.60;95892.19;647309;216;31556;-76
2022/02/13 06:16:28;;;;;;;2.00;0.60;;;-0.90;1.40;;;-0.81;81.85;95893.94;648829;216;31678;-76
2022/02/13 06:19:09;;;;;;;0.70;0.60;;;-1.00;1.40;;;-0.80;81.40;95898.94;651457;212;31485;-76
2022/02/13 06:21:51;;;;;;;0.70;0.57;;;-1.00;1.40;;;-0.76;80.15;95894.13;619126;226;32032;-76
2022/02/13 06:24:33;;;;;;;0.40;0.40;;;-1.00;1.40;;;-0.75;79.54;95889.70;650589;216;31503;-76
2022/02/13 06:27:15;;;;;;;0.90;0.60;;;-0.90;1.40;;;-0.69;79.26;95896.27;653637;212;31469;-76
2022/02/13 06:29:56;;;;;;;0.40;0.40;;;-0.90;1.40;;;-0.69;79.40;95894.64;645541;212;31517;-76
2022/02/13 06:32:38;;;;;;;1.00;0.80;;;-0.90;1.40;;;-0.78;80.59;95889.67;647938;212;31531;-76
2022/02/13 06:35:52;;;;;;;0.40;0.37;;;-1.10;1.40;;;-0.90;82.43;95894.57;620625;226;42557;-76
2022/02/13 06:38:36;;;;;;;0.60;0.40;;;-1.20;1.40;;;-0.94;83.74;95892.36;645800;216;31623;-76
2022/02/13 06:41:18;;;;;;;0.40;0.30;;;-1.30;1.40;;;-1.03;85.98;95890.35;651704;216;31463;-75
2022/02/13 06:44:00;;;;;;;0.60;0.60;;;-1.50;1.40;;;-1.04;86.52;95884.94;618841;226;31857;-76
2022/02/13 06:46:42;;;;;;;0.50;0.40;;;-1.30;1.40;;;-0.96;86.09;95880.08;648755;212;32255;-76
2022/02/13 06:49:23;;;;;;;0.50;0.40;;;-1.20;1.40;;;-0.85;84.91;95877.86;648211;216;31527;-76
2022/02/13 06:52:09;;;;;;;0.90;0.90;;;-1.10;1.40;;;-0.87;84.78;95876.27;648698;216;31659;-76
2022/02/13 06:54:52;;;;;;;0.40;0.40;;;-1.20;1.40;;;-0.85;83.53;95876.17;651646;212;31673;-76
2022/02/13 06:57:33;;;;;;;0.40;0.40;;;-1.10;1.40;;;-0.71;81.70;95884.89;648611;216;31516;-76
2022/02/13 07:00:15;;;;;;;0.60;0.50;;;-1.00;1.40;;;-0.54;79.98;95892.36;617937;226;31814;-76
2022/02/13 07:02:59;;;;;;;0.40;0.30;;;-0.70;1.40;;;-0.32;80.21;95895.07;648770;212;31504;-76
2022/02/13 07:05:40;;;;;;;0.40;0.30;;;-0.50;1.40;;;0.00;79.38;95894.81;646815;216;31540;-76
2022/02/13 07:08:22;;;;;;;0.60;0.50;;;-0.10;1.40;;;0.18;77.97;95897.02;647529;212;31476;-76
2022/02/13 07:11:04;;;;;;;0.50;0.50;;;0.00;1.40;;;0.21;77.42;95897.92;650930;212;32103;-76
2022/02/13 07:13:46;;;;;;;0.50;0.40;;;-0.10;1.40;;;0.29;77.67;95898.33;650898;216;32962;-76
2022/02/13 07:16:29;;;;;;;1.50;0.40;;;0.00;1.40;;;0.08;79.03;95895.42;645338;216;31522;-76
2022/02/13 07:19:10;;;;;;;0.55;0.50;;;-0.30;1.40;;;-0.05;81.84;95892.69;646676;216;31926;-76
2022/02/13 07:21:51;;;;;;;0.70;0.55;;;-0.40;1.40;;;-0.02;84.60;95891.42;648264;216;31522;-76
2022/02/13 07:24:37;;;;;;;1.10;0.73;;;-0.40;1.40;;;0.16;85.13;95890.94;646413;216;31505;-76
2022/02/13 07:27:19;;;;;;;0.70;0.40;;;-0.20;1.40;;;0.32;83.96;95884.39;648169;212;31507;-76
2022/02/13 07:30:01;;;;;;;0.60;0.50;;;0.00;1.40;;;0.40;83.54;95880.72;648121;216;31482;-76
2022/02/13 07:32:43;;;;;;;0.60;0.60;;;0.10;1.40;;;0.52;83.07;95879.73;654089;216;31580;-76
2022/02/13 07:35:51;;;;;;;0.77;0.57;;;0.20;1.40;;;0.68;82.07;95879.48;649618;216;31554;-75
2022/02/13 07:38:33;;;;;;;0.40;0.40;;;0.30;1.40;;;0.84;80.55;95873.00;644648;212;42122;-76
2022/02/13 07:41:15;;;;;;;0.60;0.60;;;0.60;1.40;;;1.06;79.53;95876.44;618123;222;32095;-76
2022/02/13 07:43:57;;;;;;;0.60;0.37;;;0.70;1.40;;;1.24;78.41;95872.20;652730;216;32320;-76
2022/02/13 07:49:13;;;;;;;0.95;0.65;;;1.00;1.40;;;1.53;78.30;95870.17;650293;212;31589;-76
2022/02/13 07:51:58;;;;;;;1.50;1.10;;;1.10;1.40;;;1.70;78.07;95865.13;642413;220;32065;-76
2022/02/13 07:54:40;;;;;;;1.05;0.95;;;1.30;1.40;;;1.85;77.36;95865.31;623235;226;31973;-77
2022/02/13 07:57:22;;;;;;;3.40;1.10;;;1.40;1.40;;;2.04;78.09;95862.63;645161;216;31520;-76
2022/02/13 08:00:05;;;;;;;1.00;0.60;;;1.50;1.40;;;2.12;78.58;95858.46;648509;216;31565;-76
2022/02/13 08:02:48;;;;;;;4.43;2.40;;;1.60;1.40;;;2.27;77.82;95856.02;647122;216;31551;-76
2022/02/13 08:05:30;;;;;;;1.35;1.25;;;1.80;1.40;;;2.45;77.68;95849.70;616355;222;31877;-76
2022/02/13 08:08:12;;;;;;;9.70;5.95;;;2.00;1.40;;;2.62;77.39;95846.14;647797;212;31591;-76
2022/02/13 08:10:54;;;;;;;1.83;1.23;;;2.20;1.40;;;2.75;77.07;95847.19;644211;216;42852;-77
2022/02/13 08:13:39;;;;;;;4.00;2.12;;;2.30;1.40;;;2.90;77.92;95842.29;653062;216;31557;-76
2022/02/13 08:16:21;;;;;;;1.15;1.05;;;2.40;1.40;;;3.08;75.96;95844.86;648149;216;31599;-76
2022/02/13 08:19:02;;;;;;;2.30;1.70;;;2.60;1.40;;;3.29;74.06;95837.67;648581;212;31577;-76
2022/02/13 08:21:44;;;;;;;0.60;0.60;;;2.80;1.40;;;3.49;71.01;95843.78;617392;226;32691;-76
2022/02/13 08:24:26;;;;;;;0.90;0.80;;;3.00;1.40;;;3.64;67.49;95837.88;649138;216;31492;-76
2022/02/13 08:27:08;;;;;;;8.07;2.93;;;3.20;1.40;;;3.78;65.48;95834.78;648655;216;32585;-77
2022/02/13 08:29:51;;;;;;;7.12;3.70;;;3.40;1.40;;;3.96;64.69;95830.27;625293;226;32124;-77
2022/02/13 08:32:31;;;;;;;16.00;7.57;;;3.50;1.40;;;4.18;65.63;95826.16;643986;216;31598;-76
2022/02/13 08:35:51;;;;;;;11.40;5.00;;;3.70;1.40;;;4.30;64.08;95825.32;651946;216;34107;-76
2022/02/13 08:38:33;;;;;;;1.92;1.45;;;3.90;1.40;;;4.38;64.07;95818.30;646499;212;31573;-76
2022/02/13 08:41:15;;;;;;;2.22;0.98;;;3.90;1.40;;;4.46;64.27;95822.50;652376;216;31514;-76
2022/02/13 08:43:57;;;;;;;1.02;0.70;;;3.90;1.40;;;4.47;65.76;95813.41;648872;212;31560;-76
2022/02/13 08:46:39;;;;;;;2.87;1.90;;;4.00;1.40;;;4.77;67.48;95808.11;619758;222;32144;-76
2022/02/13 08:49:21;;;;;;;1.20;0.70;;;4.40;1.40;;;4.94;67.17;95808.78;618973;222;31911;-77
2022/02/13 08:52:04;;;;;;;0.60;0.60;;;4.50;1.40;;;5.05;67.01;95809.41;619816;222;31845;-76
2022/02/13 08:54:44;;;;;;;1.40;0.80;;;4.60;1.40;;;5.26;66.66;95805.50;646767;212;31659;-76
2022/02/13 08:57:29;;;;;;;0.50;0.40;;;4.80;1.40;;;5.36;67.40;95800.98;646871;216;31516;-76
2022/02/13 09:00:11;;;;;;;1.50;1.10;;;4.80;1.40;;;5.43;64.68;95806.25;649367;216;31498;-76
2022/02/13 09:02:53;;;;;;;1.52;1.35;;;5.00;1.40;;;5.60;64.11;95798.64;646404;212;32153;-76
2022/02/13 09:05:36;;;;;;;2.92;2.30;;;5.10;1.40;;;5.62;60.83;95802.69;646821;216;32346;-76
2022/02/13 09:08:18;;;;;;;3.03;2.00;;;5.20;1.40;;;5.86;60.71;95800.67;646370;212;31665;-76
2022/02/13 09:11:01;;;;;;;1.10;0.75;;;5.50;1.40;;;6.19;59.43;95801.45;647951;212;42459;-76
2022/02/13 09:16:20;;;;;;;0.90;0.40;;;8.30;1.40;;;8.89;49.69;95786.09;653388;212;31616;-76
2022/02/13 09:19:03;;;;;;;0.80;0.53;;;9.10;1.40;;;10.17;46.28;95780.10;646714;216;31631;-76
2022/02/13 09:27:05;;;;;;;0.80;0.80;;;11.80;1.40;;;12.35;40.06;95771.87;620553;226;31825;-77
2022/02/13 09:29:47;;;;;;;3.80;1.10;;;11.00;1.40;;;12.46;41.44;95764.44;652316;212;31754;-78
2022/02/13 09:32:29;;;;;;;1.05;0.95;;;11.30;1.40;;;14.03;42.08;95768.23;650579;216;31485;-77
2022/02/13 09:35:51;;;;;;;1.50;0.93;;;12.10;1.40;;;13.49;37.29;95759.70;619389;226;31907;-77
2022/02/13 09:38:34;;;;;;;1.30;0.90;;;11.40;1.40;;;14.34;35.84;95753.81;645246;216;31491;-77
2022/02/13 09:41:18;;;;;;;1.30;0.80;;;12.20;1.40;;;15.04;35.28;95748.16;620232;222;31971;-77
2022/02/13 09:44:01;;;;;;;1.60;0.75;;;13.00;1.40;;;14.67;34.81;95747.33;627163;225;31944;-76
2022/02/13 09:46:44;;;;;;;0.75;0.60;;;12.40;1.40;;;15.12;37.39;95739.29;647447;216;31420;-78
2022/02/13 09:49:26;;;;;;;1.70;0.60;;;12.70;1.40;;;16.31;35.43;95731.36;619024;226;31854;-79
2022/02/13 09:52:11;;;;;;;1.70;0.60;;;14.00;1.40;;;15.67;33.98;95734.59;649064;216;31538;-77
2022/02/13 09:54:58;;;;;;;2.73;1.80;;;12.70;1.40;;;14.65;35.72;95737.67;647878;216;31585;-77
2022/02/13 10:02:09;;;;;;;1.42;1.10;;;13.00;1.40;;;15.37;35.36;95731.05;646433;216;31675;-76
2022/02/13 10:04:51;;;;;;;0.70;0.65;;;12.80;1.40;;;15.94;35.24;95725.83;645945;212;31608;-76
2022/02/13 10:07:33;;;;;;;1.75;0.77;;;12.70;1.40;;;15.72;33.82;95721.97;632773;212;32364;-76
2022/02/13 10:10:16;;;;;;;1.90;0.80;;;12.60;1.40;;;15.75;34.77;95723.41;649399;212;31658;-76
2022/02/13 10:12:58;;;;;;;0.57;0.50;;;12.90;1.40;;;15.60;33.12;95718.84;621678;226;32223;-77
2022/02/13 10:15:43;;;;;;;0.80;0.60;;;12.50;1.40;;;15.40;34.08;95713.84;646678;216;31631;-78
2022/02/13 10:18:27;;;;;;;1.07;0.90;;;13.20;1.40;;;15.60;33.60;95713.17;652756;212;32263;-77
2022/02/13 10:21:06;;;;;;;3.40;2.62;;;13.30;1.40;;;17.84;34.73;95705.73;646024;214;31720;-77
2022/02/13 10:23:48;;;;;;;1.17;0.88;;;14.20;1.40;;;16.87;31.31;95701.92;617999;226;31918;-77
2022/02/13 10:26:29;;;;;;;1.02;0.60;;;13.70;1.40;;;16.79;32.86;95699.86;618840;222;31943;-76
2022/02/13 10:29:11;;;;;;;0.93;0.80;;;14.20;1.40;;;18.96;31.76;95692.61;622026;222;31848;-77
2022/02/13 10:31:53;;;;;;;1.33;0.88;;;15.70;1.40;;;19.26;29.31;95692.70;616407;229;31880;-76
2022/02/13 10:38:37;;;;;;;1.62;1.05;;;16.80;1.40;;;19.80;30.84;95680.90;644731;212;35850;-76
2022/02/13 10:41:28;;;;;;;1.52;0.90;;;16.30;1.40;;;19.87;31.66;95673.17;649436;212;31638;-75
2022/02/13 10:44:10;;;;;;;0.95;0.90;;;15.90;1.40;;;21.33;28.86;95664.49;647634;212;32119;-76
2022/02/13 10:46:51;;;;;;;0.80;0.60;;;16.70;1.40;;;21.57;29.39;95659.04;650838;216;31541;-78
2022/02/13 10:49:36;;;;;;;4.10;1.12;;;16.50;1.40;;;21.28;33.18;95652.81;623383;226;31810;-76
2022/02/13 10:52:16;;;;;;;1.17;1.00;;;16.10;1.40;;;20.84;29.18;95649.59;650358;212;31571;-76
2022/02/13 10:55:00;;;;;;;1.27;1.00;;;15.60;1.40;;;21.60;30.43;95637.91;646598;216;31568;-78
2022/02/13 10:57:47;;;;;;;1.40;0.80;;;17.10;1.40;;;21.73;28.05;95636.67;649221;216;33359;-76
2022/02/13 11:00:37;;;;;;;2.80;1.10;;;15.70;1.40;;;20.16;31.33;95633.71;652016;212;31782;-76
2022/02/13 11:03:16;;;;;;;1.65;1.30;;;14.90;1.40;;;20.33;31.65;95624.15;646661;216;31522;-76
2022/02/13 11:06:00;;;;;;;2.30;1.20;;;16.20;1.40;;;21.39;30.22;95618.80;643898;212;31639;-76
2022/02/13 11:08:46;;;;;;;2.40;1.10;;;16.80;1.40;;;22.23;32.11;95617.84;628388;222;31734;-76
2022/02/13 11:11:27;;;;;;;3.70;1.08;;;17.70;1.40;;;20.32;33.12;95613.74;644376;216;31538;-76
2022/02/13 11:14:26;;;;;;;1.85;1.00;;;17.60;1.40;;;23.65;29.55;95603.08;652516;212;31515;-76
2022/02/13 11:19:48;;;;;;;1.77;1.27;;;19.70;1.40;;;22.72;29.13;95599.75;645642;216;31494;-77
2022/02/13 11:22:33;;;;;;;1.30;1.00;;;16.50;1.40;;;22.19;29.69;95591.84;646798;215;31528;-77
2022/02/13 11:25:18;;;;;;;1.40;1.10;;;17.50;1.40;;;20.96;29.15;95584.31;649406;216;31496;-76
2022/02/13 11:27:59;;;;;;;2.80;1.12;;;16.20;1.40;;;21.79;30.09;95587.05;617491;226;32002;-77
2022/02/13 11:30:43;;;;;;;2.50;1.30;;;16.80;1.40;;;22.70;28.02;95576.88;646521;216;33021;-77
2022/02/13 11:35:54;;;;;;;2.17;1.15;;;17.80;1.40;;;23.68;28.07;95563.78;652379;216;31584;-76
2022/02/13 11:38:54;;;;;;;2.40;1.30;;;18.90;1.40;;;25.16;28.99;95555.43;648329;212;31527;-79
2022/02/13 11:44:10;;;;;;;1.90;1.70;;;19.90;1.40;;;24.01;26.51;95551.59;648161;212;31904;-76
2022/02/13 11:46:55;;;;;;;1.90;1.40;;;18.00;1.40;;;21.27;29.09;95550.59;631685;217;31747;-76
2022/02/13 11:52:27;;;;;;;2.90;1.58;;;18.90;1.40;;;22.59;28.01;95540.72;650827;216;31728;-77
2022/02/13 11:55:14;;;;;;;2.08;1.50;;;17.60;1.40;;;21.72;30.37;95540.22;644589;216;42179;-77
2022/02/13 11:58:13;;;;;;;2.10;1.50;;;16.90;1.40;;;20.55;31.05;95535.60;645702;212;42668;-77
2022/02/13 12:00:56;;;;;;;6.20;1.48;;;17.20;1.40;;;22.38;31.02;95524.48;641873;215;31606;-77
2022/02/13 12:03:37;;;;;;;4.50;1.50;;;19.30;1.40;;;24.97;28.38;95512.67;618809;226;31887;-76
2022/02/13 12:06:30;;;;;;;2.87;1.45;;;19.80;1.40;;;27.06;25.65;95510.65;643591;216;31688;-77
2022/02/13 12:09:12;;;;;;;1.87;1.40;;;20.70;1.40;;;23.86;27.58;95511.30;647464;212;31540;-76
2022/02/13 12:13:07;;;;;;;3.73;1.80;;;17.50;1.40;;;23.41;29.77;95508.69;645230;216;31591;-77
2022/02/13 12:15:57;;;;;;;3.47;1.48;;;18.30;1.40;;;22.67;27.79;95510.84;649952;216;31613;-76
2022/02/13 12:18:44;;;;;;;2.65;1.25;;;18.80;1.40;;;23.49;28.67;95502.14;620317;226;42641;-76
2022/02/13 12:21:29;;;;;;;2.40;1.50;;;19.60;1.40;;;26.44;24.93;95496.45;646418;216;31548;-76